Weather at Arkaroola Airport

Public forecast

Using degrees Celsius for public forecast. Weather courtesy of forecast.io.

Closest aviation weather report (METAR) to Arkaroola Airport

Closest report is Leigh Creek Airport, 49.0 nm (90.7 km) WSW. Retrieved 2021/06/12 18:00 UTC (5 minutes ago):

YLEC 121800Z AUTO 35005KT 9999 // NCD 06/02 Q1016

Closest aviation forecast (TAF) to Arkaroola Airport

Closest forecast is Woomera Airfield, 137.8 nm (255.1 km) WSW. Retrieved 2021/06/12 18:00 UTC (5 minutes ago):

TAF YPWR 121647Z 1218/1312 03010KT 9999 -SHRA FEW050 FM130000 02014G25KT 9999 -SHRA FEW050 FM130600 04010KT 9999 -SHRA FEW050